Time;durP1;ratioP1;P1;durP2;ratioP2;P2;SDS_P1;SDS_P2;PMS_P1;PMS_P2;Temp;Humidity;BMP_temperature;BMP_pressure;BME280_temperature;BME280_humidity;BME280_pressure;Samples;Min_cycle;Max_cycle;Signal;HPM_P1;HPM_P2
2022/01/12 05:15:05;;;;;;;30.77;15.95;;;;;;;-1.01;57.18;102190.47;5584642;31;33349;-57
2022/01/12 05:18:07;;;;;;;26.23;15.18;;;;;;;-1.10;56.91;102182.72;5584510;31;33300;-57
2022/01/12 05:21:11;;;;;;;32.47;17.10;;;;;;;-0.97;57.61;102190.97;5584636;31;33203;-57
2022/01/12 05:24:13;;;;;;;34.17;17.52;;;;;;;-0.96;56.69;102188.22;5584586;31;33621;-57
2022/01/12 05:27:15;;;;;;;29.77;17.62;;;;;;;-1.21;56.66;102183.81;5584702;31;33369;-57
2022/01/12 05:30:18;;;;;;;28.92;16.60;;;;;;;-0.95;56.71;102195.09;5584628;32;33519;-57
2022/01/12 05:33:23;;;;;;;27.52;16.25;;;;;;;-0.92;59.27;102204.50;5584656;31;34379;-57
2022/01/12 05:36:26;;;;;;;27.37;15.60;;;;;;;-0.89;56.43;102193.66;5584541;31;34195;-57
2022/01/12 05:39:28;;;;;;;27.92;15.32;;;;;;;-1.06;57.67;102194.56;5568296;31;33575;-57
2022/01/12 05:42:52;;;;;;;31.20;16.30;;;;;;;-0.92;56.97;102201.88;5564866;32;32587;-57
2022/01/12 05:46:07;;;;;;;26.52;16.17;;;;;;;-0.95;60.94;102203.00;5564725;32;33444;-57
2022/01/12 05:52:37;;;;;;;29.00;15.05;;;;;;;-0.86;56.82;102206.50;5564797;32;32066;-57
2022/01/12 05:55:41;;;;;;;;;;;;;;;-0.95;56.40;102208.28;5564982;32;34566;-57
2022/01/12 05:58:45;;;;;;;26.73;15.70;;;;;;;-0.84;56.25;102211.59;5565260;32;34590;-57
2022/01/12 06:01:48;;;;;;;27.50;15.98;;;;;;;-0.95;57.50;102212.72;5566389;32;33690;-57
2022/01/12 06:04:51;;;;;;;25.37;15.27;;;;;;;-0.99;56.70;102209.59;5583866;32;34284;-57
2022/01/12 06:07:54;;;;;;;23.73;14.68;;;;;;;-1.04;56.44;102213.66;5584320;32;33852;-57
2022/01/12 06:10:57;;;;;;;25.27;15.50;;;;;;;-0.98;56.04;102219.13;5583687;32;34331;-57
2022/01/12 06:14:02;;;;;;;25.92;15.68;;;;;;;-0.79;55.94;102223.31;5580192;31;33636;-57
2022/01/12 06:17:05;;;;;;;24.67;14.40;;;;;;;-0.93;58.26;102229.16;5571191;32;31916;-57
2022/01/12 06:20:08;;;;;;;25.85;15.52;;;;;;;-1.11;56.58;102245.06;5571258;32;33431;-57
2022/01/12 06:23:11;;;;;;;30.17;16.02;;;;;;;-1.10;57.47;102241.44;5571182;31;33527;-57
2022/01/12 06:26:14;;;;;;;26.40;14.95;;;;;;;-1.04;57.18;102246.06;5570867;31;33188;-57
2022/01/12 06:32:22;;;;;;;25.37;15.75;;;;;;;-1.16;61.41;102252.59;5570999;32;33834;-57
2022/01/12 06:35:25;;;;;;;27.02;15.00;;;;;;;-1.23;57.61;102249.75;5571181;32;33706;-57
2022/01/12 06:38:27;;;;;;;23.48;14.52;;;;;;;-1.21;57.87;102253.06;5554147;32;34588;-57
2022/01/12 06:41:30;;;;;;;30.25;16.05;;;;;;;-1.24;59.62;102253.37;5551294;32;33533;-57
2022/01/12 06:44:32;;;;;;;27.77;15.95;;;;;;;-1.06;58.23;102253.31;5551266;32;33734;-57
2022/01/12 06:47:35;;;;;;;28.33;16.00;;;;;;;-1.13;57.88;102257.53;5567847;32;33402;-57
2022/01/12 06:50:37;;;;;;;27.40;16.23;;;;;;;-0.87;57.20;102259.31;5570832;32;33408;-57
2022/01/12 06:53:41;;;;;;;25.90;15.23;;;;;;;-0.88;56.71;102263.75;5568362;32;34394;-57
2022/01/12 06:56:44;;;;;;;32.80;16.75;;;;;;;-0.99;57.31;102267.50;5568166;31;33845;-57
2022/01/12 06:59:49;;;;;;;26.67;16.30;;;;;;;-0.97;60.34;102264.69;5570343;32;32810;-57
2022/01/12 07:02:54;;;;;;;27.02;15.85;;;;;;;-0.95;56.97;102265.38;5570380;31;33183;-57
2022/01/12 07:05:59;;;;;;;35.28;18.58;;;;;;;-0.87;63.29;102265.41;5571271;31;32894;-57
2022/01/12 07:09:06;;;;;;;29.58;17.05;;;;;;;-0.95;59.69;102265.38;5567642;32;33627;-57
2022/01/12 07:12:16;;;;;;;30.05;16.55;;;;;;;-0.83;67.32;102268.53;5561033;32;33654;-57
2022/01/12 07:15:23;;;;;;;28.45;17.17;;;;;;;-0.95;57.78;102271.47;5554871;32;32068;-57
2022/01/12 07:18:30;;;;;;;27.42;16.00;;;;;;;-0.77;56.99;102278.44;5567362;32;31932;-56
2022/01/12 07:21:43;;;;;;;33.05;16.95;;;;;;;-0.96;57.13;102284.75;5568076;31;33216;-57
2022/01/12 07:24:49;;;;;;;29.80;17.50;;;;;;;-0.93;57.10;102294.16;5569830;32;34325;-57
2022/01/12 07:27:57;;;;;;;27.80;16.27;;;;;;;-0.82;56.63;102296.53;5568333;32;33617;-57
2022/01/12 07:31:08;;;;;;;57.47;17.65;;;;;;;-0.82;57.85;102299.16;5570127;32;34383;-57
2022/01/12 07:34:14;;;;;;;30.92;17.48;;;;;;;-0.88;57.80;102305.06;5570407;32;33754;-57
2022/01/12 07:37:26;;;;;;;32.00;17.83;;;;;;;-0.87;58.51;102301.44;5570084;32;33693;-57
2022/01/12 07:40:36;;;;;;;29.20;17.42;;;;;;;-0.83;57.60;102315.94;5569944;32;32347;-56
2022/01/12 07:43:48;;;;;;;37.08;19.00;;;;;;;-0.74;58.04;102315.00;5569488;32;34382;-57
2022/01/12 07:46:54;;;;;;;32.78;19.00;;;;;;;-1.05;57.32;102317.31;5568158;32;33723;-57
2022/01/12 07:50:01;;;;;;;28.75;18.12;;;;;;;-0.81;57.00;102314.78;5567349;32;33909;-57
2022/01/12 07:53:05;;;;;;;30.85;17.10;;;;;;;-0.59;56.13;102321.31;5566910;32;34375;-57
2022/01/12 07:56:09;;;;;;;30.75;18.02;;;;;;;-0.80;56.44;102334.06;5568645;32;34348;-57
2022/01/12 07:59:16;;;;;;;25.05;15.50;;;;;;;-0.80;60.82;102341.94;5569646;32;34089;-57
2022/01/12 08:02:21;;;;;;;31.23;16.67;;;;;;;-0.47;56.26;102333.19;5568712;32;33531;-57
2022/01/12 08:05:30;;;;;;;29.08;15.93;;;;;;;-0.55;60.51;102335.00;5569024;32;33237;-57
2022/01/12 08:08:35;;;;;;;27.92;15.95;;;;;;;-0.59;56.02;102331.84;5569337;32;34451;-57
2022/01/12 08:11:41;;;;;;;30.23;16.15;;;;;;;-0.54;60.09;102324.28;5569493;32;33735;-57
2022/01/12 08:14:46;;;;;;;29.95;17.05;;;;;;;-0.49;59.28;102335.19;5569815;32;34295;-57
2022/01/12 08:18:01;;;;;;;30.77;16.90;;;;;;;-0.38;56.64;102328.81;5559952;32;33688;-57
2022/01/12 08:21:07;;;;;;;30.00;16.55;;;;;;;-0.38;64.24;102334.06;5560558;32;34466;-57
2022/01/12 08:24:12;;;;;;;28.17;17.42;;;;;;;-0.25;56.50;102334.44;5560860;32;33762;-57
2022/01/12 08:27:39;;;;;;;28.08;16.55;;;;;;;0.01;55.47;102332.69;5557689;32;33650;-57
2022/01/12 08:30:47;;;;;;;27.77;16.67;;;;;;;0.12;56.12;102343.75;5566392;32;33458;-57
2022/01/12 08:33:50;;;;;;;29.65;17.10;;;;;;;0.26;54.56;102355.47;5570147;32;33585;-57
2022/01/12 08:36:58;;;;;;;31.15;17.60;;;;;;;0.31;55.38;102357.62;5569658;32;33527;-57
2022/01/12 08:40:03;;;;;;;27.50;16.70;;;;;;;0.31;55.28;102366.34;5569678;32;33587;-57
2022/01/12 08:43:07;;;;;;;27.27;17.12;;;;;;;0.60;53.87;102363.25;5569205;32;33553;-57
2022/01/12 08:46:11;;;;;;;28.92;18.05;;;;;;;0.61;54.16;102367.53;5569622;32;33556;-57
2022/01/12 08:49:15;;;;;;;27.10;16.60;;;;;;;0.60;54.46;102365.87;5569653;32;33655;-57
2022/01/12 08:52:30;;;;;;;29.70;17.05;;;;;;;0.54;54.62;102368.34;5570317;32;33677;-57
2022/01/12 08:55:36;;;;;;;30.65;15.82;;;;;;;0.65;53.90;102362.72;5570187;32;34625;-57
2022/01/12 08:58:41;;;;;;;29.42;16.90;;;;;;;0.83;54.05;102362.53;5569666;32;34158;-57
2022/01/12 09:01:45;;;;;;;26.40;16.73;;;;;;;0.98;53.64;102367.97;5569504;32;33845;-57
2022/01/12 09:04:50;;;;;;;30.15;16.37;;;;;;;0.92;52.77;102357.09;5570035;32;34343;-57
2022/01/12 09:07:55;;;;;;;25.05;15.27;;;;;;;1.12;52.30;102360.19;5569289;32;34404;-57
2022/01/12 09:10:58;;;;;;;23.77;15.18;;;;;;;1.15;51.91;102351.09;5569958;32;33750;-57
2022/01/12 09:14:04;;;;;;;27.42;15.63;;;;;;;1.16;52.46;102347.50;5569966;32;34108;-57
2022/01/12 09:17:16;;;;;;;23.17;14.70;;;;;;;1.42;51.31;102349.84;5569693;32;33592;-57
2022/01/12 09:20:20;;;;;;;23.65;14.15;;;;;;;1.50;51.06;102344.56;5570088;32;33641;-57
2022/01/12 09:26:40;;;;;;;27.85;16.25;;;;;;;1.49;50.79;102350.00;5569702;32;34360;-57
2022/01/12 09:29:47;;;;;;;26.58;16.55;;;;;;;1.57;51.29;102342.03;5568998;32;33681;-57
2022/01/12 09:32:51;;;;;;;;;;;;;;;1.57;51.06;102340.22;5568845;32;33681;-57
2022/01/12 09:35:56;;;;;;;28.98;15.73;;;;;;;1.73;50.12;102341.97;5569272;32;34599;-56
2022/01/12 09:39:00;;;;;;;29.75;15.75;;;;;;;1.90;51.43;102339.22;5567775;32;33558;-57
2022/01/12 09:42:04;;;;;;;27.77;15.65;;;;;;;1.92;49.51;102343.34;5567711;32;34319;-57
2022/01/12 09:45:07;;;;;;;28.27;16.05;;;;;;;1.92;49.83;102335.44;5568584;32;33899;-57
2022/01/12 09:48:10;;;;;;;25.45;16.55;;;;;;;2.41;65.24;102337.69;5568841;32;33533;-57
2022/01/12 09:51:13;;;;;;;30.25;17.52;;;;;;;2.72;59.34;102347.38;5569320;32;33408;-57
2022/01/12 09:54:15;;;;;;;33.72;16.87;;;;;;;2.55;53.67;102352.81;5568533;32;32088;-57
2022/01/12 09:57:17;;;;;;;29.75;17.02;;;;;;;3.19;60.81;102347.06;5571646;32;34645;-57
2022/01/12 10:00:26;;;;;;;35.33;17.27;;;;;;;2.91;51.63;102344.19;5571284;32;33708;-57
2022/01/12 10:03:29;;;;;;;39.40;17.40;;;;;;;3.05;48.79;102343.41;5569514;32;32190;-57
2022/01/12 10:06:36;;;;;;;32.60;17.85;;;;;;;2.78;55.15;102351.94;5566558;32;34131;-57
2022/01/12 10:09:44;;;;;;;32.10;17.48;;;;;;;2.85;50.47;102349.41;5568639;31;34475;-57
2022/01/12 10:12:53;;;;;;;27.35;18.05;;;;;;;2.71;49.77;102348.37;5562115;32;34488;-57
2022/01/12 10:15:55;;;;;;;29.37;17.12;;;;;;;3.17;63.23;102337.63;5567668;32;33344;-57
2022/01/12 10:18:59;;;;;;;27.10;16.77;;;;;;;3.19;64.00;102343.59;5570826;32;33801;-57
2022/01/12 10:22:06;;;;;;;27.75;17.45;;;;;;;2.88;47.90;102347.25;5569982;32;33878;-57
2022/01/12 10:25:14;;;;;;;39.17;18.85;;;;;;;3.23;61.44;102344.87;5559829;32;33729;-57
2022/01/12 10:28:25;;;;;;;30.65;16.98;;;;;;;3.26;47.77;102345.31;5556222;32;33610;-57
2022/01/12 10:31:27;;;;;;;33.50;18.12;;;;;;;3.64;60.04;102347.88;5551822;32;32226;-57
2022/01/12 10:34:35;;;;;;;35.92;17.83;;;;;;;3.38;46.85;102339.53;5559872;32;34370;-57
2022/01/12 10:37:37;;;;;;;28.83;16.87;;;;;;;3.08;47.88;102338.72;5569570;31;33781;-57
2022/01/12 10:40:49;;;;;;;20.10;13.45;;;;;;;3.26;47.34;102336.56;5570674;32;34640;-57
2022/01/12 10:43:53;;;;;;;26.12;13.85;;;;;;;3.76;68.54;102334.94;5566505;32;33595;-57
2022/01/12 10:47:14;;;;;;;23.35;13.57;;;;;;;3.95;45.05;102336.97;5551459;32;33689;-57
2022/01/12 10:50:16;;;;;;;22.87;13.45;;;;;;;3.63;49.76;102327.63;5551267;32;33675;-57
2022/01/12 10:53:28;;;;;;;23.62;13.60;;;;;;;3.64;45.96;102337.25;5559973;32;33805;-57
2022/01/12 10:56:31;;;;;;;22.98;13.38;;;;;;;3.51;44.42;102345.03;5570601;32;33789;-57
2022/01/12 10:59:37;;;;;;;23.70;14.25;;;;;;;3.42;58.94;102333.72;5551117;32;33751;-57
2022/01/12 11:02:39;;;;;;;26.27;14.32;;;;;;;3.85;50.64;102333.00;5551035;32;34285;-57
2022/01/12 11:05:43;;;;;;;23.92;14.20;;;;;;;3.72;42.28;102325.69;5569893;32;34409;-57
2022/01/12 11:08:49;;;;;;;24.00;13.75;;;;;;;3.86;55.50;102327.47;5570182;32;33773;-57
2022/01/12 11:11:54;;;;;;;24.87;14.52;;;;;;;4.10;42.76;102318.34;5554910;32;33686;-57
2022/01/12 11:14:56;;;;;;;19.02;12.80;;;;;;;3.86;45.31;102322.19;5567019;32;32032;-57
2022/01/12 11:17:59;;;;;;;22.73;12.37;;;;;;;4.32;61.65;102328.97;5570270;32;33769;-57
2022/01/12 11:21:08;;;;;;;24.87;13.90;;;;;;;3.98;41.69;102328.66;5570240;32;34616;-57
2022/01/12 11:24:14;;;;;;;25.02;13.30;;;;;;;3.96;41.12;102328.00;5569181;32;34278;-57
2022/01/12 11:27:23;;;;;;;25.17;13.70;;;;;;;4.52;44.68;102335.25;5570098;32;34401;-58
2022/01/12 11:30:25;;;;;;;24.83;13.85;;;;;;;3.79;45.83;102320.47;5570195;32;34406;-57
2022/01/12 11:33:30;;;;;;;23.30;14.90;;;;;;;3.28;41.42;102318.66;5570194;32;33572;-57
2022/01/12 11:36:40;;;;;;;23.40;14.07;;;;;;;2.95;42.36;102320.84;5570542;32;34433;-57
2022/01/12 11:39:44;;;;;;;26.02;14.87;;;;;;;2.92;42.36;102329.16;5570070;32;33898;-58
2022/01/12 11:42:46;;;;;;;26.75;14.63;;;;;;;2.75;42.58;102323.19;5568927;32;33957;-57
2022/01/12 11:46:09;;;;;;;23.58;13.88;;;;;;;2.79;43.64;102319.19;5570056;32;33886;-57
2022/01/12 11:49:24;;;;;;;25.10;13.55;;;;;;;2.65;42.56;102317.31;5570618;32;34451;-58
2022/01/12 11:52:30;;;;;;;29.40;15.18;;;;;;;2.86;42.39;102313.97;5570253;32;33621;-57
2022/01/12 11:55:40;;;;;;;24.63;13.45;;;;;;;3.07;45.74;102308.75;5570296;32;33362;-57
2022/01/12 11:58:52;;;;;;;28.12;14.87;;;;;;;3.88;62.04;102303.44;5569892;32;34266;-58
2022/01/12 12:02:14;;;;;;;27.85;15.00;;;;;;;3.99;41.76;102287.00;5569497;32;33620;-58
2022/01/12 12:05:19;;;;;;;24.52;13.57;;;;;;;3.73;41.46;102291.00;5570083;32;34643;-58
2022/01/12 12:08:25;;;;;;;25.45;13.93;;;;;;;3.81;41.75;102299.88;5570128;32;34370;-58
2022/01/12 12:11:29;;;;;;;25.05;14.43;;;;;;;3.53;40.97;102305.88;5570343;32;33229;-58
2022/01/12 12:14:31;;;;;;;23.42;13.60;;;;;;;3.62;46.11;102302.13;5569810;32;33705;-58
2022/01/12 12:17:37;;;;;;;26.37;13.75;;;;;;;3.53;40.66;102296.09;5569290;32;33646;-57
2022/01/12 12:20:39;;;;;;;25.65;13.38;;;;;;;3.41;40.61;102287.00;5568569;32;34510;-57
2022/01/12 12:23:42;;;;;;;25.15;14.38;;;;;;;3.34;40.19;102295.84;5569398;32;33661;-58
2022/01/12 12:26:54;;;;;;;23.70;14.20;;;;;;;3.40;40.92;102295.13;5569823;32;33758;-58
2022/01/12 12:29:57;;;;;;;25.00;14.20;;;;;;;4.03;50.42;102304.19;5569622;32;33869;-58
2022/01/12 12:33:08;;;;;;;24.85;13.82;;;;;;;4.74;62.11;102298.03;5569676;32;34359;-58
2022/01/12 12:36:12;;;;;;;23.52;13.60;;;;;;;5.14;53.48;102296.44;5557125;32;33665;-58
2022/01/12 12:39:15;;;;;;;24.37;14.27;;;;;;;4.79;54.77;102292.94;5569151;31;34266;-58
2022/01/12 12:42:20;;;;;;;27.00;15.77;;;;;;;4.27;41.29;102307.47;5564627;32;33686;-58
2022/01/12 12:45:22;;;;;;;25.62;15.63;;;;;;;4.12;54.84;102305.69;5566620;32;34212;-58
2022/01/12 12:48:26;;;;;;;33.33;17.40;;;;;;;4.00;45.34;102307.22;5569002;32;34363;-58
2022/01/12 12:51:28;;;;;;;31.52;17.87;;;;;;;3.95;43.95;102304.31;5569424;32;34432;-58
2022/01/12 12:54:31;;;;;;;28.87;17.35;;;;;;;3.87;45.11;102296.47;5567752;32;34257;-58
2022/01/12 12:57:52;;;;;;;30.40;17.12;;;;;;;3.97;43.96;102299.62;5567656;32;33796;-58
2022/01/12 13:01:06;;;;;;;32.53;17.48;;;;;;;3.91;45.86;102293.25;5568632;32;33759;-58
2022/01/12 13:04:09;;;;;;;27.33;17.30;;;;;;;3.90;44.21;102298.75;5568447;32;33601;-58
2022/01/12 13:07:18;;;;;;;32.63;18.45;;;;;;;4.00;54.58;102286.78;5568218;32;34411;-58
2022/01/12 13:10:24;;;;;;;31.25;18.58;;;;;;;3.98;45.37;102298.63;5568280;32;33610;-58
2022/01/12 13:13:26;;;;;;;32.22;20.83;;;;;;;3.94;44.82;102287.56;5568075;32;34361;-58
2022/01/12 13:16:29;;;;;;;32.65;19.62;;;;;;;4.07;45.40;102286.84;5568613;32;33808;-57
2022/01/12 13:23:03;;;;;;;32.38;20.27;;;;;;;3.96;46.32;102295.34;5568791;32;33597;-58
2022/01/12 13:26:07;;;;;;;32.33;19.85;;;;;;;3.74;47.76;102283.87;5570345;32;33990;-58
2022/01/12 13:29:13;;;;;;;39.28;25.25;;;;;;;3.72;46.95;102286.72;5571049;32;33749;-58
2022/01/12 13:32:20;;;;;;;36.47;21.25;;;;;;;3.66;47.21;102297.25;5570096;32;33586;-58
2022/01/12 13:35:32;;;;;;;37.60;21.75;;;;;;;3.76;47.06;102292.47;5568683;32;33171;-58
2022/01/12 13:38:34;;;;;;;36.58;23.48;;;;;;;3.67;47.21;102297.06;5569730;31;33456;-58
2022/01/12 13:41:40;;;;;;;36.92;20.83;;;;;;;3.72;48.49;102293.88;5570170;32;33795;-58
2022/01/12 13:44:43;;;;;;;43.10;22.13;;;;;;;4.00;55.17;102299.25;5570013;32;33840;-58
2022/01/12 13:47:52;;;;;;;33.13;22.35;;;;;;;3.90;47.41;102296.91;5569275;32;34194;-58
2022/01/12 13:50:54;;;;;;;35.92;20.25;;;;;;;4.10;48.59;102293.63;5570190;32;33734;-58
2022/01/12 13:54:09;;;;;;;33.70;20.55;;;;;;;4.13;46.37;102295.91;5570106;32;34317;-58
2022/01/12 13:57:16;;;;;;;38.90;20.90;;;;;;;4.04;46.59;102303.19;5569715;32;33667;-58
2022/01/12 14:00:19;;;;;;;33.25;20.30;;;;;;;3.83;46.98;102296.03;5570067;32;33700;-58
2022/01/12 14:03:23;;;;;;;35.13;20.75;;;;;;;3.71;46.22;102298.34;5569967;32;34282;-58
2022/01/12 14:06:28;;;;;;;32.05;19.30;;;;;;;3.83;47.23;102303.97;5569617;32;33694;-58
2022/01/12 14:09:37;;;;;;;31.70;19.52;;;;;;;3.85;46.93;102303.81;5569401;32;33580;-58
2022/01/12 14:12:49;;;;;;;31.20;18.77;;;;;;;3.93;49.23;102299.19;5570388;32;33570;-58
2022/01/12 14:15:52;;;;;;;30.58;19.20;;;;;;;4.00;54.21;102312.50;5569207;32;33673;-58
2022/01/12 14:19:02;;;;;;;28.67;17.67;;;;;;;3.76;46.46;102313.69;5569243;32;33791;-58
2022/01/12 14:22:04;;;;;;;34.50;18.60;;;;;;;3.89;49.76;102315.69;5569743;32;33310;-58
2022/01/12 14:25:07;;;;;;;32.05;18.23;;;;;;;3.75;54.02;102307.56;5569592;32;34368;-58
2022/01/12 14:28:11;;;;;;;28.10;17.37;;;;;;;3.91;50.30;102318.97;5568978;32;34451;-57
2022/01/12 14:31:14;;;;;;;25.67;15.85;;;;;;;4.12;46.04;102299.59;5569270;32;33838;-58
2022/01/12 14:34:16;;;;;;;37.58;17.17;;;;;;;4.05;46.79;102299.50;5569175;32;34448;-57
2022/01/12 14:37:18;;;;;;;32.28;17.90;;;;;;;4.07;48.67;102294.81;5569097;31;34576;-58
2022/01/12 14:40:21;;;;;;;27.40;16.92;;;;;;;4.31;46.88;102306.09;5569038;32;33679;-58
2022/01/12 14:43:29;;;;;;;31.23;17.35;;;;;;;4.02;45.78;102307.03;5569555;32;34190;-57
2022/01/12 14:46:31;;;;;;;27.17;16.15;;;;;;;3.82;45.98;102304.19;5569153;32;33888;-58
2022/01/12 14:49:33;;;;;;;27.77;15.77;;;;;;;3.74;45.29;102305.94;5569129;32;33957;-58
2022/01/12 14:52:36;;;;;;;28.58;15.18;;;;;;;3.78;47.17;102310.88;5568941;32;33149;-58
2022/01/12 14:55:39;;;;;;;28.80;15.00;;;;;;;3.90;44.82;102323.44;5568852;32;34093;-57
2022/01/12 14:58:44;;;;;;;23.67;15.18;;;;;;;3.87;51.59;102323.00;5568716;32;33350;-57
2022/01/12 15:01:46;;;;;;;23.98;13.88;;;;;;;3.56;43.58;102328.56;5569725;32;33703;-58
2022/01/12 15:04:48;;;;;;;22.40;13.68;;;;;;;3.30;44.24;102313.97;5569317;32;34214;-57
2022/01/12 15:07:51;;;;;;;22.92;13.40;;;;;;;3.39;46.99;102309.41;5568465;32;34582;-58
2022/01/12 15:10:53;;;;;;;22.92;15.15;;;;;;;3.26;43.80;102310.88;5569200;32;34451;-57
2022/01/12 15:13:59;;;;;;;22.87;13.98;;;;;;;3.51;53.22;102294.66;5568373;32;34431;-57
2022/01/12 15:17:01;;;;;;;22.45;13.80;;;;;;;3.62;44.26;102304.78;5567632;32;34362;-57
2022/01/12 15:20:09;;;;;;;28.92;13.43;;;;;;;3.47;45.82;102312.75;5568608;32;33709;-57
2022/01/12 15:23:11;;;;;;;24.37;13.62;;;;;;;3.65;44.51;102315.00;5568943;32;33680;-57
2022/01/12 15:26:14;;;;;;;23.55;13.27;;;;;;;3.42;44.56;102312.50;5568972;32;34503;-58
2022/01/12 15:29:16;;;;;;;25.08;13.25;;;;;;;3.36;44.18;102313.22;5568668;32;33837;-58
2022/01/12 15:32:19;;;;;;;23.40;13.40;;;;;;;3.28;44.41;102319.47;5568968;32;33759;-58
2022/01/12 15:35:21;;;;;;;21.35;13.50;;;;;;;3.10;50.20;102334.09;5569913;32;33982;-58
2022/01/12 15:38:24;;;;;;;22.83;13.73;;;;;;;3.12;45.82;102335.56;5569856;31;33746;-57
2022/01/12 15:41:26;;;;;;;28.95;14.15;;;;;;;2.94;45.83;102357.09;5568957;32;33523;-58
2022/01/12 15:44:30;;;;;;;30.67;16.33;;;;;;;2.75;52.07;102357.62;5569103;32;33503;-58
2022/01/12 15:47:32;;;;;;;27.85;15.57;;;;;;;2.55;48.24;102347.53;5568567;32;33856;-58
2022/01/12 15:50:35;;;;;;;26.23;15.50;;;;;;;2.59;47.82;102355.94;5569313;32;33371;-57
2022/01/12 15:53:37;;;;;;;27.27;15.82;;;;;;;2.60;47.52;102368.16;5569121;32;33731;-58
2022/01/12 15:56:41;;;;;;;27.55;15.93;;;;;;;2.62;51.17;102363.53;5568914;32;33666;-57
2022/01/12 15:59:44;;;;;;;37.45;15.20;;;;;;;2.48;51.03;102362.47;5568464;32;33644;-58
2022/01/12 16:02:47;;;;;;;28.87;15.27;;;;;;;2.41;49.44;102361.53;5569572;32;33801;-58
2022/01/12 16:05:51;;;;;;;29.63;16.67;;;;;;;2.32;49.81;102359.97;5567679;32;34411;-58
2022/01/12 16:08:54;;;;;;;26.73;15.90;;;;;;;2.09;55.39;102374.00;5559343;32;33637;-58
2022/01/12 16:11:58;;;;;;;25.25;16.15;;;;;;;2.17;50.84;102370.47;5557630;32;33726;-58
2022/01/12 16:15:20;;;;;;;26.83;15.30;;;;;;;2.22;50.79;102368.13;5569582;32;33890;-58
2022/01/12 16:18:22;;;;;;;29.95;16.70;;;;;;;2.34;62.85;102368.53;5569431;32;33600;-58
2022/01/12 16:21:26;;;;;;;24.80;15.13;;;;;;;2.40;50.47;102370.47;5569469;32;34641;-58
2022/01/12 16:24:28;;;;;;;35.33;17.17;;;;;;;2.38;52.53;102371.66;5569235;32;33792;-58
2022/01/12 16:27:31;;;;;;;28.70;16.23;;;;;;;2.15;50.72;102369.81;5568297;32;32095;-58
2022/01/12 16:30:45;;;;;;;24.95;15.90;;;;;;;2.16;54.91;102362.72;5569926;32;33654;-58
2022/01/12 16:33:48;;;;;;;25.80;15.43;;;;;;;2.18;51.65;102360.69;5569566;32;34332;-57
2022/01/12 16:36:59;;;;;;;27.25;16.75;;;;;;;2.36;54.38;102353.31;5569230;32;33634;-58
2022/01/12 16:40:07;;;;;;;31.20;19.00;;;;;;;2.42;66.71;102343.81;5569102;32;33840;-58
2022/01/12 16:43:09;;;;;;;27.70;16.87;;;;;;;2.33;50.23;102351.81;5568954;32;33740;-58
2022/01/12 16:46:13;;;;;;;37.03;20.10;;;;;;;2.31;50.61;102337.94;5569083;32;33842;-58
2022/01/12 16:49:16;;;;;;;33.13;20.15;;;;;;;2.29;51.47;102345.25;5568751;32;33670;-58
